createdAt,value
2017-08-08T00:00:28.468Z,16.50
2017-08-08T00:02:55.375Z,16.50
2017-08-08T00:05:21.557Z,16.50
2017-08-08T00:07:47.731Z,16.50
2017-08-08T00:10:14.603Z,16.50
2017-08-08T00:12:40.780Z,16.40
2017-08-08T00:15:06.939Z,16.40
2017-08-08T00:17:33.091Z,16.40
2017-08-08T00:19:59.996Z,16.40
2017-08-08T00:22:26.213Z,16.40
2017-08-08T00:24:52.362Z,16.40
2017-08-08T00:27:18.547Z,16.40
2017-08-08T00:29:44.756Z,16.40
2017-08-08T00:32:10.923Z,16.40
2017-08-08T00:34:37.088Z,16.30
2017-08-08T00:37:03.243Z,16.30
2017-08-08T00:39:29.427Z,16.30
2017-08-08T00:41:55.695Z,16.30
2017-08-08T00:44:21.892Z,16.30
2017-08-08T00:46:48.064Z,16.30
2017-08-08T00:49:14.247Z,16.30
2017-08-08T00:51:40.418Z,16.20
2017-08-08T00:54:06.613Z,16.30
2017-08-08T00:56:32.769Z,16.20
2017-08-08T00:58:58.978Z,16.20
2017-08-08T01:01:25.145Z,16.10
2017-08-08T01:03:51.331Z,16.10
2017-08-08T01:06:17.498Z,16.10
2017-08-08T01:08:43.710Z,16.10
2017-08-08T01:11:09.875Z,16.10
2017-08-08T01:13:36.053Z,16.10
2017-08-08T01:16:02.220Z,16.00
2017-08-08T01:18:29.119Z,16.00
2017-08-08T01:20:55.331Z,16.00
2017-08-08T01:23:21.500Z,16.00
2017-08-08T01:25:47.663Z,15.90
2017-08-08T01:28:13.816Z,15.90
2017-08-08T01:30:39.999Z,15.90
2017-08-08T01:33:06.150Z,15.80
2017-08-08T01:35:32.319Z,15.80
2017-08-08T01:37:59.237Z,15.70
2017-08-08T01:40:25.445Z,15.70
2017-08-08T01:42:51.597Z,15.70
2017-08-08T01:45:17.794Z,15.70
2017-08-08T01:47:43.947Z,15.80
2017-08-08T01:50:10.168Z,15.70
2017-08-08T01:52:36.334Z,15.70
2017-08-08T01:55:03.239Z,15.70
2017-08-08T01:57:29.407Z,15.60
2017-08-08T01:59:55.594Z,15.60
2017-08-08T02:02:21.756Z,15.60
2017-08-08T02:04:47.914Z,15.60
2017-08-08T02:07:14.080Z,15.60
2017-08-08T02:09:40.300Z,15.60
2017-08-08T02:12:06.447Z,15.60
2017-08-08T02:14:33.335Z,15.60
2017-08-08T02:16:59.507Z,15.50
2017-08-08T02:19:25.652Z,15.50
2017-08-08T02:21:51.838Z,15.50
2017-08-08T02:24:18.007Z,15.50
2017-08-08T02:26:44.186Z,15.50
2017-08-08T02:29:10.365Z,15.50
2017-08-08T02:31:36.561Z,15.50
2017-08-08T02:34:03.451Z,15.60
2017-08-08T02:36:29.624Z,15.60
2017-08-08T02:38:55.779Z,15.50
2017-08-08T02:41:21.974Z,15.50
2017-08-08T02:43:48.135Z,15.50
2017-08-08T02:46:14.300Z,15.60
2017-08-08T02:48:40.439Z,15.50
2017-08-08T02:51:06.596Z,15.50
2017-08-08T02:53:32.731Z,15.60
2017-08-08T02:55:58.939Z,15.50
2017-08-08T02:58:25.079Z,15.50
2017-08-08T03:00:51.262Z,15.50
2017-08-08T03:03:17.467Z,15.50
2017-08-08T03:05:43.613Z,15.50
2017-08-08T03:08:09.763Z,15.50
2017-08-08T03:10:36.664Z,15.50
2017-08-08T03:13:03.848Z,15.50
2017-08-08T03:15:29.998Z,15.50
2017-08-08T03:17:56.183Z,15.50
2017-08-08T03:20:22.343Z,15.50
2017-08-08T03:22:49.263Z,15.50
2017-08-08T03:25:15.403Z,15.50
2017-08-08T03:27:41.624Z,15.50
2017-08-08T03:30:07.780Z,15.50
2017-08-08T03:32:33.954Z,15.50
2017-08-08T03:35:00.090Z,15.50
2017-08-08T03:37:26.319Z,15.50
2017-08-08T03:39:52.460Z,15.50
2017-08-08T03:42:18.627Z,15.50
2017-08-08T03:44:44.799Z,15.40
2017-08-08T03:47:10.968Z,15.40
2017-08-08T03:49:37.131Z,15.50
2017-08-08T03:52:03.299Z,15.40
2017-08-08T03:54:29.449Z,15.50
2017-08-08T03:56:55.594Z,15.50
2017-08-08T03:59:21.875Z,15.50
2017-08-08T04:01:48.099Z,15.50
2017-08-08T04:04:14.287Z,15.50
2017-08-08T04:06:40.411Z,15.50
2017-08-08T04:09:06.567Z,15.50
2017-08-08T04:11:32.724Z,15.50
2017-08-08T04:13:58.866Z,15.50
2017-08-08T04:16:25.037Z,15.60
2017-08-08T04:18:51.195Z,15.50
2017-08-08T04:21:17.334Z,15.50
2017-08-08T04:23:43.534Z,15.50
2017-08-08T04:26:09.698Z,15.50
2017-08-08T04:28:35.893Z,15.50
2017-08-08T04:31:02.051Z,15.50
2017-08-08T04:33:28.188Z,15.50
2017-08-08T04:35:54.359Z,15.50
2017-08-08T04:38:20.522Z,15.50
2017-08-08T04:40:46.646Z,15.50
2017-08-08T04:43:12.811Z,15.50
2017-08-08T04:45:38.979Z,15.60
2017-08-08T04:48:05.103Z,15.50
2017-08-08T04:50:31.238Z,15.60
2017-08-08T04:52:57.362Z,15.60
2017-08-08T04:55:23.517Z,15.60
2017-08-08T04:57:49.668Z,15.60
2017-08-08T05:00:15.845Z,15.60
2017-08-08T05:02:42.019Z,15.70
2017-08-08T05:05:08.177Z,15.70
2017-08-08T05:07:34.294Z,15.70
2017-08-08T05:10:00.430Z,15.80
2017-08-08T05:12:26.570Z,15.80
2017-08-08T05:14:52.707Z,15.80
2017-08-08T05:17:18.831Z,15.80
2017-08-08T05:19:45.072Z,15.90
2017-08-08T05:22:11.236Z,15.90
2017-08-08T05:24:37.404Z,15.80
2017-08-08T05:27:03.536Z,15.90
2017-08-08T05:29:29.804Z,15.90
2017-08-08T05:31:56.003Z,16.00
2017-08-08T05:34:22.148Z,16.00
2017-08-08T05:36:48.315Z,16.00
2017-08-08T05:39:14.444Z,16.00
2017-08-08T05:41:40.592Z,16.20
2017-08-08T05:44:06.724Z,16.20
2017-08-08T05:46:32.897Z,16.30
2017-08-08T05:48:59.035Z,16.40
2017-08-08T05:51:25.190Z,16.50
2017-08-08T05:53:51.319Z,16.50
2017-08-08T05:56:17.468Z,16.60
2017-08-08T05:58:43.644Z,16.70
2017-08-08T06:01:09.820Z,16.80
2017-08-08T06:03:35.971Z,16.90
2017-08-08T06:06:02.103Z,16.90
2017-08-08T06:08:28.283Z,17.00
2017-08-08T06:10:54.444Z,17.10
2017-08-08T06:13:20.579Z,17.10
2017-08-08T06:15:46.792Z,17.10
2017-08-08T06:18:12.923Z,17.20
2017-08-08T06:20:39.091Z,17.30
2017-08-08T06:23:05.261Z,17.40
2017-08-08T06:25:31.427Z,17.50
2017-08-08T06:27:58.404Z,17.50
2017-08-08T06:30:24.543Z,17.60
2017-08-08T06:32:50.705Z,17.70
2017-08-08T06:35:16.878Z,17.70
2017-08-08T06:37:43.149Z,17.80
2017-08-08T06:40:09.580Z,17.90
2017-08-08T06:42:36.048Z,18.00
2017-08-08T06:45:02.540Z,18.10
2017-08-08T06:47:28.837Z,18.20
2017-08-08T06:49:55.007Z,18.20
2017-08-08T06:52:22.378Z,18.30
2017-08-08T06:54:48.558Z,18.40
2017-08-08T06:57:14.724Z,18.40
2017-08-08T06:59:40.975Z,18.50
2017-08-08T07:02:07.139Z,18.50
2017-08-08T07:04:33.281Z,18.60
2017-08-08T07:07:00.319Z,18.60
2017-08-08T07:09:26.465Z,18.60
2017-08-08T07:11:55.828Z,18.70
2017-08-08T07:14:22.007Z,18.80
2017-08-08T07:16:48.195Z,18.80
2017-08-08T07:19:14.398Z,18.80
2017-08-08T07:21:40.551Z,18.90
2017-08-08T07:24:07.112Z,18.90
2017-08-08T07:26:33.411Z,19.00
2017-08-08T07:29:07.890Z,19.00
2017-08-08T07:31:34.055Z,19.10
2017-08-08T07:34:01.046Z,19.20
2017-08-08T07:36:27.225Z,19.20
2017-08-08T07:38:53.396Z,19.30
2017-08-08T07:41:19.563Z,19.30
2017-08-08T07:43:45.716Z,19.30
2017-08-08T07:46:11.891Z,19.40
2017-08-08T07:48:38.063Z,19.40
2017-08-08T07:51:04.267Z,19.50
2017-08-08T07:53:32.561Z,19.50
2017-08-08T07:55:58.849Z,19.60
2017-08-08T07:58:24.995Z,19.70
2017-08-08T08:00:51.212Z,19.80
2017-08-08T08:03:17.404Z,20.00
2017-08-08T08:05:45.795Z,20.10
2017-08-08T08:08:11.947Z,20.20
2017-08-08T08:10:38.125Z,20.40
2017-08-08T08:13:04.304Z,20.40
2017-08-08T08:15:30.511Z,20.40
2017-08-08T08:17:56.671Z,20.50
2017-08-08T08:20:22.871Z,20.60
2017-08-08T08:22:49.039Z,20.70
2017-08-08T08:25:15.208Z,20.80
2017-08-08T08:27:41.627Z,20.90
2017-08-08T08:30:10.201Z,21.20
2017-08-08T08:32:36.367Z,21.30
2017-08-08T08:35:02.519Z,21.30
2017-08-08T08:37:28.693Z,21.40
2017-08-08T08:39:54.957Z,21.40
2017-08-08T08:42:21.263Z,21.50
2017-08-08T08:44:47.459Z,21.50
2017-08-08T08:47:13.728Z,21.50
2017-08-08T08:49:39.883Z,21.50
2017-08-08T08:52:06.092Z,21.50
2017-08-08T08:54:32.266Z,21.40
2017-08-08T08:56:58.439Z,21.50
2017-08-08T08:59:24.607Z,21.50
2017-08-08T09:01:50.779Z,21.60
2017-08-08T09:04:16.971Z,21.70
2017-08-08T09:06:43.321Z,21.70
2017-08-08T09:09:09.471Z,21.70
2017-08-08T09:11:36.226Z,21.70
2017-08-08T09:14:02.439Z,21.70
2017-08-08T09:16:28.787Z,21.60
2017-08-08T09:18:54.921Z,21.70
2017-08-08T09:21:21.104Z,21.70
2017-08-08T09:23:47.271Z,21.70
2017-08-08T09:26:13.440Z,21.70
2017-08-08T09:28:39.655Z,21.70
2017-08-08T09:31:05.924Z,21.70
2017-08-08T09:33:32.071Z,21.70
2017-08-08T09:35:58.228Z,21.70
2017-08-08T09:38:24.379Z,21.70
2017-08-08T09:40:50.555Z,21.60
2017-08-08T09:43:16.708Z,21.50
2017-08-08T09:45:42.854Z,21.50
2017-08-08T09:48:09.084Z,21.50
2017-08-08T09:50:35.229Z,21.50
2017-08-08T09:53:01.408Z,21.30
2017-08-08T09:55:27.572Z,21.30
2017-08-08T09:57:53.752Z,21.30
2017-08-08T10:00:19.881Z,21.20
2017-08-08T10:02:46.093Z,21.10
2017-08-08T10:05:12.256Z,21.10
2017-08-08T10:07:38.407Z,21.00
2017-08-08T10:10:04.544Z,20.90
2017-08-08T10:12:30.702Z,21.00
2017-08-08T10:14:56.843Z,20.90
2017-08-08T10:17:23.055Z,20.90
2017-08-08T10:19:49.268Z,20.80
2017-08-08T10:22:15.458Z,20.80
2017-08-08T10:24:41.737Z,20.70
2017-08-08T10:27:07.891Z,20.70
2017-08-08T10:29:34.283Z,20.60
2017-08-08T10:32:00.404Z,20.60
2017-08-08T10:34:26.560Z,20.60
2017-08-08T10:36:52.711Z,20.60
2017-08-08T10:39:18.866Z,20.60
2017-08-08T10:41:45.004Z,20.60
2017-08-08T10:44:11.141Z,20.50
2017-08-08T10:46:37.337Z,20.50
2017-08-08T10:49:03.520Z,20.40
2017-08-08T10:51:29.647Z,20.30
2017-08-08T10:53:55.843Z,20.20
2017-08-08T10:56:22.016Z,20.20
2017-08-08T10:58:48.184Z,20.30
2017-08-08T11:01:14.357Z,20.40
2017-08-08T11:03:40.546Z,20.50
2017-08-08T11:06:06.709Z,20.60
2017-08-08T11:08:32.861Z,20.60
2017-08-08T11:10:58.983Z,20.70
2017-08-08T11:13:25.180Z,20.80
2017-08-08T11:15:51.311Z,20.80
2017-08-08T11:18:17.487Z,20.80
2017-08-08T11:20:43.621Z,20.90
2017-08-08T11:23:09.829Z,21.10
2017-08-08T11:25:35.958Z,21.30
2017-08-08T11:28:02.122Z,21.20
2017-08-08T11:30:28.497Z,21.00
2017-08-08T11:32:54.780Z,21.10
2017-08-08T11:35:20.930Z,20.90
2017-08-08T11:37:47.068Z,20.80
2017-08-08T11:40:13.246Z,20.70
2017-08-08T11:42:39.552Z,20.60
2017-08-08T11:45:05.727Z,20.60
2017-08-08T11:47:31.880Z,20.70
2017-08-08T11:49:58.540Z,20.60
2017-08-08T11:52:24.875Z,20.70
2017-08-08T11:54:51.038Z,20.60
2017-08-08T11:57:17.492Z,20.70
2017-08-08T11:59:43.680Z,20.60
2017-08-08T12:02:09.815Z,20.60
2017-08-08T12:04:36.103Z,20.60
2017-08-08T12:07:02.219Z,20.60
2017-08-08T12:09:28.459Z,20.60
2017-08-08T12:11:54.623Z,20.60
2017-08-08T12:14:20.911Z,20.60
2017-08-08T12:16:47.063Z,20.70
2017-08-08T12:19:13.251Z,20.60
2017-08-08T12:21:39.580Z,20.60
2017-08-08T12:24:06.071Z,20.60
2017-08-08T12:26:32.248Z,20.60
2017-08-08T12:28:58.402Z,20.60
2017-08-08T12:31:24.584Z,20.60
2017-08-08T12:33:50.735Z,20.70
2017-08-08T12:36:17.276Z,20.70
2017-08-08T12:38:43.541Z,20.70
2017-08-08T12:41:09.787Z,20.70
2017-08-08T12:43:35.919Z,20.80
2017-08-08T12:46:02.223Z,20.90
2017-08-08T12:48:28.423Z,21.00
2017-08-08T12:50:55.045Z,21.20
2017-08-08T12:53:21.264Z,21.40
2017-08-08T12:55:47.616Z,21.60
2017-08-08T12:58:13.932Z,21.70
2017-08-08T13:00:40.111Z,21.70
2017-08-08T13:03:06.245Z,21.90
2017-08-08T13:05:32.419Z,22.00
2017-08-08T13:07:58.572Z,22.30
2017-08-08T13:10:24.851Z,22.80
2017-08-08T13:12:51.011Z,23.20
2017-08-08T13:15:17.321Z,23.20
2017-08-08T13:17:43.522Z,23.40
2017-08-08T13:20:09.688Z,23.60
2017-08-08T13:22:36.900Z,23.70
2017-08-08T13:25:03.043Z,24.10
2017-08-08T13:27:29.283Z,24.50
2017-08-08T13:29:56.188Z,24.50
2017-08-08T13:32:22.593Z,24.40
2017-08-08T13:34:48.751Z,24.70
2017-08-08T13:37:14.931Z,24.90
2017-08-08T13:39:41.133Z,24.70
2017-08-08T13:42:07.324Z,25.00
2017-08-08T13:44:33.502Z,25.00
2017-08-08T13:47:00.415Z,24.80
2017-08-08T13:49:26.565Z,24.80
2017-08-08T13:51:52.726Z,24.60
2017-08-08T13:54:18.892Z,24.30
2017-08-08T13:56:45.055Z,24.10
2017-08-08T13:59:11.184Z,23.90
2017-08-08T14:01:37.355Z,23.90
2017-08-08T14:04:03.548Z,23.70
2017-08-08T14:06:29.735Z,23.40
2017-08-08T14:08:55.896Z,23.20
2017-08-08T14:11:22.016Z,23.10
2017-08-08T14:13:48.167Z,23.00
2017-08-08T14:16:14.319Z,22.90
2017-08-08T14:18:40.459Z,22.90
2017-08-08T14:21:06.652Z,22.90
2017-08-08T14:23:32.926Z,22.80
2017-08-08T14:25:59.075Z,22.70
2017-08-08T14:28:25.259Z,22.70
2017-08-08T14:30:51.390Z,22.70
2017-08-08T14:33:17.612Z,22.70
2017-08-08T14:35:43.739Z,22.80
2017-08-08T14:38:09.911Z,22.70
2017-08-08T14:40:36.078Z,22.70
2017-08-08T14:43:02.209Z,22.70
2017-08-08T14:45:28.339Z,22.60
2017-08-08T14:47:54.463Z,22.60
2017-08-08T14:50:20.623Z,22.50
2017-08-08T14:52:46.772Z,22.50
2017-08-08T14:55:12.963Z,22.30
2017-08-08T14:57:39.107Z,22.30
2017-08-08T15:00:05.294Z,22.30
2017-08-08T15:02:31.430Z,22.40
2017-08-08T15:04:57.579Z,22.60
2017-08-08T15:07:23.739Z,22.70
2017-08-08T15:09:49.920Z,22.70
2017-08-08T15:12:16.046Z,22.70
2017-08-08T15:14:42.235Z,22.80
2017-08-08T15:17:08.363Z,22.90
2017-08-08T15:19:34.535Z,22.70
2017-08-08T15:22:00.713Z,22.60
2017-08-08T15:24:26.959Z,22.60
2017-08-08T15:26:53.071Z,22.70
2017-08-08T15:29:19.211Z,22.60
2017-08-08T15:31:45.454Z,22.50
2017-08-08T15:34:11.608Z,22.50
2017-08-08T15:36:37.754Z,22.50
2017-08-08T15:39:03.902Z,22.50
2017-08-08T15:41:30.047Z,22.50
2017-08-08T15:43:56.197Z,22.50
2017-08-08T15:46:22.332Z,22.50
2017-08-08T15:48:48.450Z,22.50
2017-08-08T15:51:14.579Z,22.60
2017-08-08T15:53:40.726Z,22.70
2017-08-08T15:56:06.883Z,22.90
2017-08-08T15:58:33.026Z,23.00
2017-08-08T16:00:59.188Z,23.20
2017-08-08T16:03:25.354Z,23.20
2017-08-08T16:05:51.487Z,23.20
2017-08-08T16:08:17.599Z,23.20
2017-08-08T16:10:44.762Z,23.10
2017-08-08T16:13:10.899Z,23.10
2017-08-08T16:15:37.079Z,23.00
2017-08-08T16:18:03.204Z,23.10
2017-08-08T16:20:29.362Z,23.10
2017-08-08T16:22:55.519Z,23.10
2017-08-08T16:25:21.663Z,23.10
2017-08-08T16:27:47.818Z,23.10
2017-08-08T16:30:13.952Z,23.10
2017-08-08T16:32:40.102Z,23.00
2017-08-08T16:35:06.243Z,23.10
2017-08-08T16:37:32.409Z,23.10
2017-08-08T16:39:58.530Z,23.10
2017-08-08T16:42:24.670Z,23.10
2017-08-08T16:44:50.815Z,23.00
2017-08-08T16:47:16.992Z,23.00
2017-08-08T16:49:43.114Z,23.00
2017-08-08T16:52:09.252Z,23.00
2017-08-08T16:54:35.378Z,23.00
2017-08-08T16:57:01.545Z,23.00
2017-08-08T16:59:27.703Z,23.00
2017-08-08T17:01:53.839Z,23.10
2017-08-08T17:04:19.960Z,23.10
2017-08-08T17:06:46.172Z,23.10
2017-08-08T17:09:12.359Z,23.10
2017-08-08T17:11:38.519Z,23.00
2017-08-08T17:14:04.694Z,23.00
2017-08-08T17:16:30.835Z,23.00
2017-08-08T17:18:57.014Z,23.00
2017-08-08T17:21:23.160Z,22.90
2017-08-08T17:23:49.319Z,22.80
2017-08-08T17:26:15.447Z,22.80
2017-08-08T17:28:41.637Z,22.70
2017-08-08T17:31:07.779Z,22.60
2017-08-08T17:33:33.928Z,22.60
2017-08-08T17:36:00.083Z,22.50
2017-08-08T17:38:26.243Z,22.50
2017-08-08T17:40:52.364Z,22.50
2017-08-08T17:43:18.502Z,22.50
2017-08-08T17:45:44.659Z,22.40
2017-08-08T17:48:10.827Z,22.40
2017-08-08T17:50:36.967Z,22.30
2017-08-08T17:53:03.162Z,22.30
2017-08-08T17:55:29.282Z,22.20
2017-08-08T17:57:55.407Z,22.20
2017-08-08T18:00:21.538Z,22.10
2017-08-08T18:02:47.778Z,22.10
2017-08-08T18:05:14.222Z,22.10
2017-08-08T18:07:40.391Z,22.00
2017-08-08T18:10:06.536Z,22.00
2017-08-08T18:12:32.668Z,21.90
2017-08-08T18:14:58.795Z,21.90
2017-08-08T18:17:24.943Z,21.90
2017-08-08T18:19:51.113Z,21.90
2017-08-08T18:22:17.276Z,21.90
2017-08-08T18:24:43.406Z,21.90
2017-08-08T18:27:09.531Z,21.80
2017-08-08T18:29:35.664Z,21.80
2017-08-08T18:32:01.819Z,21.80
2017-08-08T18:34:27.947Z,21.80
2017-08-08T18:36:54.069Z,21.70
2017-08-08T18:39:20.243Z,21.70
2017-08-08T18:41:46.354Z,21.70
2017-08-08T18:44:12.499Z,21.60
2017-08-08T18:46:38.647Z,21.60
2017-08-08T18:49:04.808Z,21.60
2017-08-08T18:51:30.954Z,21.50
2017-08-08T18:53:57.090Z,21.50
2017-08-08T18:56:23.227Z,21.50
2017-08-08T18:58:49.350Z,21.50
2017-08-08T19:01:15.494Z,21.40
2017-08-08T19:03:41.655Z,21.40
2017-08-08T19:06:07.846Z,21.30
2017-08-08T19:08:33.981Z,21.30
2017-08-08T19:11:00.135Z,21.30
2017-08-08T19:13:26.257Z,21.20
2017-08-08T19:15:52.423Z,21.20
2017-08-08T19:18:18.559Z,21.20
2017-08-08T19:20:44.674Z,21.20
2017-08-08T19:23:10.801Z,21.10
2017-08-08T19:25:36.946Z,21.10
2017-08-08T19:28:03.099Z,21.00
2017-08-08T19:30:29.210Z,21.00
2017-08-08T19:32:55.342Z,21.00
2017-08-08T19:35:21.482Z,21.00
2017-08-08T19:37:47.632Z,21.00
2017-08-08T19:40:13.774Z,20.90
2017-08-08T19:42:39.931Z,20.90
2017-08-08T19:45:06.041Z,20.90
2017-08-08T19:47:32.163Z,20.80
2017-08-08T19:49:58.335Z,20.80
2017-08-08T19:52:24.475Z,20.80
2017-08-08T19:54:50.602Z,20.70
2017-08-08T19:57:16.768Z,20.70
2017-08-08T19:59:42.914Z,20.60
2017-08-08T20:02:09.030Z,20.60
2017-08-08T20:04:35.177Z,20.60
2017-08-08T20:07:01.335Z,20.50
2017-08-08T20:09:27.504Z,20.50
2017-08-08T20:11:53.643Z,20.50
2017-08-08T20:14:19.766Z,20.50
2017-08-08T20:16:45.928Z,20.50
2017-08-08T20:19:12.046Z,20.40
2017-08-08T20:21:38.220Z,20.40
2017-08-08T20:24:04.367Z,20.40
2017-08-08T20:26:30.528Z,20.40
2017-08-08T20:28:56.648Z,20.40
2017-08-08T20:31:22.782Z,20.30
2017-08-08T20:33:48.905Z,20.30
2017-08-08T20:36:15.056Z,20.20
2017-08-08T20:38:41.187Z,20.30
2017-08-08T20:41:07.360Z,20.20
2017-08-08T20:43:33.518Z,20.20
2017-08-08T20:45:59.635Z,20.10
2017-08-08T20:48:25.785Z,20.10
2017-08-08T20:50:51.915Z,20.10
2017-08-08T20:53:18.866Z,20.00
2017-08-08T20:55:44.999Z,20.00
2017-08-08T20:58:11.146Z,20.00
2017-08-08T21:00:37.295Z,19.90
2017-08-08T21:03:03.438Z,19.90
2017-08-08T21:05:29.562Z,19.90
2017-08-08T21:07:55.707Z,19.90
2017-08-08T21:10:21.833Z,19.80
2017-08-08T21:12:47.978Z,19.80
2017-08-08T21:15:14.094Z,19.80
2017-08-08T21:17:40.218Z,19.80
2017-08-08T21:20:06.359Z,19.80
2017-08-08T21:22:32.472Z,19.70
2017-08-08T21:24:58.615Z,19.70
2017-08-08T21:27:24.731Z,19.60
2017-08-08T21:29:50.858Z,19.60
2017-08-08T21:32:16.980Z,19.50
2017-08-08T21:34:43.125Z,19.50
2017-08-08T21:37:09.263Z,19.50
2017-08-08T21:39:35.410Z,19.40
2017-08-08T21:42:01.530Z,19.40
2017-08-08T21:44:27.675Z,19.40
2017-08-08T21:46:53.807Z,19.50
2017-08-08T21:49:19.954Z,19.40
2017-08-08T21:51:46.090Z,19.40
2017-08-08T21:54:12.235Z,19.40
2017-08-08T21:56:38.380Z,19.30
2017-08-08T21:59:04.516Z,19.20
2017-08-08T22:01:30.651Z,19.10
2017-08-08T22:03:56.766Z,19.00
2017-08-08T22:06:22.923Z,19.00
2017-08-08T22:08:49.047Z,18.90
2017-08-08T22:11:15.208Z,18.80
2017-08-08T22:13:41.331Z,18.70
2017-08-08T22:16:07.481Z,18.70
2017-08-08T22:18:33.608Z,18.70
2017-08-08T22:20:59.752Z,18.60
2017-08-08T22:23:25.871Z,18.50
2017-08-08T22:25:52.034Z,18.50
2017-08-08T22:28:18.164Z,18.50
2017-08-08T22:30:44.286Z,18.50
2017-08-08T22:33:10.427Z,18.40
2017-08-08T22:35:36.555Z,18.30
2017-08-08T22:38:02.695Z,18.20
2017-08-08T22:40:28.815Z,18.00
2017-08-08T22:42:54.955Z,18.10
2017-08-08T22:45:21.083Z,18.10
2017-08-08T22:47:47.222Z,18.20
2017-08-08T22:50:13.346Z,18.10
2017-08-08T22:52:39.534Z,18.00
2017-08-08T22:55:05.662Z,18.00
2017-08-08T22:57:31.785Z,18.00
2017-08-08T22:59:57.955Z,18.00
2017-08-08T23:02:24.075Z,17.80
2017-08-08T23:04:50.219Z,17.90
2017-08-08T23:07:16.343Z,17.90
2017-08-08T23:09:42.482Z,17.90
2017-08-08T23:12:08.624Z,18.00
2017-08-08T23:14:34.763Z,17.90
2017-08-08T23:17:00.886Z,18.00
2017-08-08T23:19:27.021Z,18.00
2017-08-08T23:21:53.142Z,18.00
2017-08-08T23:24:19.285Z,18.10
2017-08-08T23:26:45.392Z,18.10
2017-08-08T23:29:11.499Z,18.10
2017-08-08T23:31:37.623Z,18.10
2017-08-08T23:34:03.740Z,18.10
2017-08-08T23:36:29.878Z,18.00
2017-08-08T23:38:55.986Z,18.10
2017-08-08T23:41:22.123Z,18.00
2017-08-08T23:43:48.243Z,17.90
2017-08-08T23:46:14.399Z,17.90
2017-08-08T23:48:40.515Z,17.80
2017-08-08T23:51:06.663Z,17.80
2017-08-08T23:53:32.778Z,17.70
2017-08-08T23:55:58.915Z,17.70
2017-08-08T23:58:25.015Z,17.60
